createdAt,value
2019-01-26T00:02:25.616Z,97867.30
2019-01-26T00:05:03.814Z,97866.41
2019-01-26T00:07:40.494Z,97861.69
2019-01-26T00:10:15.217Z,97862.38
2019-01-26T00:12:51.616Z,97870.09
2019-01-26T00:15:30.880Z,97878.80
2019-01-26T00:18:09.418Z,97877.51
2019-01-26T00:20:44.217Z,97882.00
2019-01-26T00:23:19.866Z,97880.17
2019-01-26T00:25:56.531Z,97876.36
2019-01-26T00:28:33.245Z,97877.19
2019-01-26T00:31:06.983Z,97876.72
2019-01-26T00:33:45.081Z,97887.64
2019-01-26T00:36:20.007Z,97874.08
2019-01-26T00:38:57.970Z,97886.19
2019-01-26T00:41:35.026Z,97882.41
2019-01-26T00:44:11.733Z,97871.66
2019-01-26T00:46:48.707Z,97889.74
2019-01-26T00:49:26.202Z,97893.67
2019-01-26T00:52:03.109Z,97892.86
2019-01-26T00:54:36.840Z,97890.45
2019-01-26T00:57:17.315Z,97897.64
2019-01-26T00:59:51.556Z,97895.39
2019-01-26T01:02:25.999Z,97888.22
2019-01-26T01:05:01.263Z,97902.12
2019-01-26T01:07:34.600Z,97905.75
2019-01-26T01:10:12.556Z,97908.53
2019-01-26T01:12:48.921Z,97911.83
2019-01-26T01:15:22.980Z,97911.03
2019-01-26T01:17:57.907Z,97917.53
2019-01-26T01:20:32.997Z,97916.09
2019-01-26T01:23:06.886Z,97916.58
2019-01-26T01:25:42.417Z,97910.39
2019-01-26T01:28:16.430Z,97908.86
2019-01-26T01:30:48.686Z,97911.15
2019-01-26T01:33:24.788Z,97914.03
2019-01-26T01:36:01.865Z,97909.73
2019-01-26T01:38:36.084Z,97906.77
2019-01-26T01:41:13.423Z,97910.78
2019-01-26T01:43:48.535Z,97915.16
2019-01-26T01:46:26.444Z,97910.42
2019-01-26T01:49:01.151Z,97909.00
2019-01-26T01:51:35.487Z,97919.45
2019-01-26T01:54:12.466Z,97923.57
2019-01-26T01:56:46.813Z,97931.61
2019-01-26T01:59:27.345Z,97922.73
2019-01-26T02:02:01.321Z,97929.58
2019-01-26T02:04:35.448Z,97937.11
2019-01-26T02:07:09.515Z,97929.92
2019-01-26T02:09:45.675Z,97927.81
2019-01-26T02:12:22.107Z,97926.06
2019-01-26T02:14:57.493Z,97922.98
2019-01-26T02:17:31.284Z,97929.39
2019-01-26T02:20:04.170Z,97932.92
2019-01-26T02:22:40.812Z,97924.85
2019-01-26T02:25:16.391Z,97931.23
2019-01-26T02:27:51.990Z,97927.86
2019-01-26T02:30:29.928Z,97932.88
2019-01-26T02:33:06.769Z,97919.18
2019-01-26T02:35:39.754Z,97924.80
2019-01-26T02:38:12.148Z,97932.42
2019-01-26T02:40:46.222Z,97943.70
2019-01-26T02:43:23.663Z,97935.46
2019-01-26T02:46:03.992Z,97935.37
2019-01-26T02:48:35.352Z,97929.52
2019-01-26T02:51:13.372Z,97939.28
2019-01-26T02:53:56.188Z,97934.74
2019-01-26T02:56:29.137Z,97932.28
2019-01-26T02:59:06.269Z,97948.09
2019-01-26T03:01:41.065Z,97948.87
2019-01-26T03:04:16.118Z,97946.55
2019-01-26T03:06:52.041Z,97936.47
2019-01-26T03:09:27.902Z,97940.77
2019-01-26T03:12:03.664Z,97943.85
2019-01-26T03:14:38.979Z,97941.02
2019-01-26T03:17:17.628Z,97944.93
2019-01-26T03:19:53.194Z,97942.75
2019-01-26T03:22:26.527Z,97946.73
2019-01-26T03:25:00.986Z,97945.81
2019-01-26T03:27:35.030Z,97935.30
2019-01-26T03:30:14.039Z,97938.06
2019-01-26T03:32:49.830Z,97945.45
2019-01-26T03:35:24.526Z,97942.51
2019-01-26T03:37:59.950Z,97946.19
2019-01-26T03:40:34.882Z,97937.07
2019-01-26T03:43:08.606Z,97947.72
2019-01-26T03:45:42.530Z,97953.75
2019-01-26T03:48:17.775Z,97949.47
2019-01-26T03:50:50.784Z,97956.59
2019-01-26T03:53:26.433Z,97952.16
2019-01-26T03:56:02.121Z,97947.30
2019-01-26T03:58:35.828Z,97949.24
2019-01-26T04:01:08.755Z,97951.41
2019-01-26T04:03:42.838Z,97951.48
2019-01-26T04:06:22.403Z,97968.76
2019-01-26T04:08:56.707Z,97956.18
2019-01-26T04:11:31.127Z,97956.05
2019-01-26T04:14:05.184Z,97950.02
2019-01-26T04:16:40.820Z,97955.80
2019-01-26T04:19:14.409Z,97969.92
2019-01-26T04:21:52.052Z,97966.58
2019-01-26T04:24:25.858Z,97967.39
2019-01-26T04:27:01.267Z,97961.05
2019-01-26T04:29:36.541Z,97953.60
2019-01-26T04:32:15.743Z,97962.52
2019-01-26T04:34:49.742Z,97961.55
2019-01-26T04:37:23.307Z,97965.05
2019-01-26T04:39:57.622Z,97968.95
2019-01-26T04:42:32.111Z,97973.17
2019-01-26T04:45:09.057Z,97971.55
2019-01-26T04:47:42.483Z,97971.39
2019-01-26T04:50:16.703Z,97966.28
2019-01-26T04:52:52.268Z,97971.31
2019-01-26T04:55:26.741Z,97967.72
2019-01-26T04:58:00.244Z,97973.18
2019-01-26T05:00:33.169Z,97980.28
2019-01-26T05:03:10.364Z,97984.89
2019-01-26T05:05:45.965Z,97981.73
2019-01-26T05:08:21.878Z,97984.41
2019-01-26T05:10:56.805Z,97970.25
2019-01-26T05:13:31.474Z,97983.83
2019-01-26T05:16:08.292Z,97992.38
2019-01-26T05:18:42.497Z,97998.42
2019-01-26T05:21:16.625Z,98000.42
2019-01-26T05:23:52.567Z,97996.06
2019-01-26T05:26:29.008Z,97995.70
2019-01-26T05:29:08.251Z,98002.44
2019-01-26T05:31:44.051Z,98004.87
2019-01-26T05:34:16.895Z,98014.45
2019-01-26T05:36:53.063Z,98008.20
2019-01-26T05:39:28.407Z,98005.20
2019-01-26T05:42:04.850Z,98017.89
2019-01-26T05:44:37.895Z,98027.93
2019-01-26T05:47:21.113Z,98028.64
2019-01-26T05:49:59.608Z,98040.36
2019-01-26T05:52:33.786Z,98047.22
2019-01-26T05:55:10.624Z,98045.66
2019-01-26T05:57:45.006Z,98043.36
2019-01-26T06:00:26.504Z,98050.50
2019-01-26T06:03:02.154Z,98054.91
2019-01-26T06:05:36.969Z,98049.21
2019-01-26T06:08:11.396Z,98053.94
2019-01-26T06:10:46.132Z,98053.45
2019-01-26T06:13:22.209Z,98056.15
2019-01-26T06:15:58.405Z,98070.23
2019-01-26T06:18:33.371Z,98070.72
2019-01-26T06:21:09.893Z,98072.91
2019-01-26T06:23:44.179Z,98072.56
2019-01-26T06:26:20.875Z,98080.59
2019-01-26T06:28:56.888Z,98082.11
2019-01-26T06:31:33.575Z,98080.26
2019-01-26T06:34:10.100Z,98090.29
2019-01-26T06:36:45.717Z,98095.76
2019-01-26T06:39:21.805Z,98098.11
2019-01-26T06:41:58.043Z,98106.91
2019-01-26T06:44:32.862Z,98105.97
2019-01-26T06:47:06.680Z,98098.57
2019-01-26T06:49:43.095Z,98111.37
2019-01-26T06:52:18.654Z,98111.91
2019-01-26T06:54:52.107Z,98113.70
2019-01-26T06:57:28.471Z,98109.01
2019-01-26T07:00:02.110Z,98108.33
2019-01-26T07:02:39.424Z,98127.69
2019-01-26T07:05:21.961Z,98130.92
2019-01-26T07:07:57.895Z,98135.72
2019-01-26T07:10:33.347Z,98131.36
2019-01-26T07:13:08.983Z,98138.48
2019-01-26T07:15:45.895Z,98137.18
2019-01-26T07:18:23.638Z,98141.03
2019-01-26T07:20:57.753Z,98139.33
2019-01-26T07:23:35.672Z,98146.86
2019-01-26T07:26:12.140Z,98139.19
2019-01-26T07:28:46.532Z,98138.30
2019-01-26T07:31:22.450Z,98138.92
2019-01-26T07:33:58.041Z,98150.70
2019-01-26T07:36:32.040Z,98144.30
2019-01-26T07:39:09.010Z,98145.12
2019-01-26T07:41:44.896Z,98155.34
2019-01-26T07:44:19.741Z,98152.75
2019-01-26T07:46:53.291Z,98152.86
2019-01-26T07:49:27.271Z,98157.03
2019-01-26T07:52:02.637Z,98155.66
2019-01-26T07:54:39.054Z,98154.13
2019-01-26T07:57:13.014Z,98147.55
2019-01-26T07:59:48.233Z,98161.69
2019-01-26T08:02:22.389Z,98159.81
2019-01-26T08:04:56.698Z,98167.28
2019-01-26T08:07:31.349Z,98166.55
2019-01-26T08:10:06.493Z,98170.17
2019-01-26T08:12:41.875Z,98164.70
2019-01-26T08:15:22.074Z,98165.17
2019-01-26T08:18:00.092Z,98172.72
2019-01-26T08:20:40.475Z,98174.73
2019-01-26T08:23:14.500Z,98172.81
2019-01-26T08:25:49.454Z,98174.38
2019-01-26T08:28:24.723Z,98181.64
2019-01-26T08:31:03.810Z,98173.53
2019-01-26T08:33:39.046Z,98177.98
2019-01-26T08:36:16.994Z,98170.95
2019-01-26T08:38:51.641Z,98178.63
2019-01-26T08:41:28.446Z,98182.09
2019-01-26T08:44:02.963Z,98168.22
2019-01-26T08:46:38.901Z,98177.25
2019-01-26T08:49:15.189Z,98175.02
2019-01-26T08:51:50.847Z,98167.13
2019-01-26T08:54:24.349Z,98164.16
2019-01-26T08:57:01.208Z,98168.77
2019-01-26T08:59:38.932Z,98172.30
2019-01-26T09:02:37.760Z,98171.39
2019-01-26T09:05:15.812Z,98174.75
2019-01-26T09:07:53.651Z,98175.27
2019-01-26T09:10:29.646Z,98191.19
2019-01-26T09:13:04.312Z,98199.71
2019-01-26T09:15:43.824Z,98192.60
2019-01-26T09:18:19.613Z,98194.38
2019-01-26T09:20:55.557Z,98194.37
2019-01-26T09:23:31.784Z,98195.00
2019-01-26T09:26:10.083Z,98190.04
2019-01-26T09:28:51.171Z,98208.41
2019-01-26T09:31:37.172Z,98199.08
2019-01-26T09:34:15.942Z,98195.09
2019-01-26T09:36:54.736Z,98204.59
2019-01-26T09:39:28.049Z,98198.13
2019-01-26T09:42:06.943Z,98194.73
2019-01-26T09:44:49.846Z,98197.59
2019-01-26T09:47:24.245Z,98191.02
2019-01-26T09:49:58.842Z,98210.82
2019-01-26T09:52:35.724Z,98211.08
2019-01-26T09:55:12.408Z,98215.89
2019-01-26T09:57:47.023Z,98217.11
2019-01-26T10:00:24.960Z,98213.73
2019-01-26T10:03:01.848Z,98205.80
2019-01-26T10:05:37.343Z,98216.59
2019-01-26T10:08:16.840Z,98210.47
2019-01-26T10:10:55.320Z,98218.30
2019-01-26T10:13:34.532Z,98207.21
2019-01-26T10:16:08.785Z,98201.50
2019-01-26T10:18:53.354Z,98197.28
2019-01-26T10:21:24.030Z,98199.22
2019-01-26T10:23:59.865Z,98192.80
2019-01-26T10:26:37.912Z,98200.53
2019-01-26T10:29:19.915Z,98201.74
2019-01-26T10:31:55.887Z,98205.00
2019-01-26T10:34:34.076Z,98204.44
2019-01-26T10:37:15.209Z,98214.59
2019-01-26T10:39:50.422Z,98213.50
2019-01-26T10:42:28.165Z,98214.22
2019-01-26T10:45:01.812Z,98216.52
2019-01-26T10:47:35.963Z,98207.58
2019-01-26T10:50:15.132Z,98198.45
2019-01-26T10:52:57.331Z,98201.66
2019-01-26T10:55:34.991Z,98190.53
2019-01-26T10:58:09.625Z,98182.05
2019-01-26T11:00:46.287Z,98192.92
2019-01-26T11:03:18.959Z,98181.31
2019-01-26T11:05:53.231Z,98169.65
2019-01-26T11:08:29.348Z,98173.11
2019-01-26T11:11:05.503Z,98185.31
2019-01-26T11:13:38.844Z,98179.25
2019-01-26T11:16:14.587Z,98183.49
2019-01-26T11:18:47.786Z,98175.79
2019-01-26T11:21:23.681Z,98174.60
2019-01-26T11:23:58.385Z,98165.92
2019-01-26T11:26:36.813Z,98172.59
2019-01-26T11:29:11.849Z,98171.04
2019-01-26T11:31:47.615Z,98165.91
2019-01-26T11:34:23.964Z,98151.59
2019-01-26T11:36:59.587Z,98161.73
2019-01-26T11:39:34.822Z,98153.66
2019-01-26T11:42:11.569Z,98157.19
2019-01-26T11:45:06.190Z,98154.84
2019-01-26T11:47:42.081Z,98152.67
2019-01-26T11:50:25.379Z,98155.84
2019-01-26T11:53:04.236Z,98156.73
2019-01-26T11:55:45.973Z,98165.18
2019-01-26T11:58:19.957Z,98164.54
2019-01-26T12:01:26.563Z,98161.23
2019-01-26T12:04:31.809Z,98174.53
2019-01-26T12:07:15.000Z,98159.25
2019-01-26T12:09:52.180Z,98159.25
2019-01-26T12:12:24.915Z,98158.52
2019-01-26T12:15:02.384Z,98157.06
2019-01-26T12:17:36.645Z,98155.39
2019-01-26T12:20:14.205Z,98155.55
2019-01-26T12:22:49.571Z,98154.98
2019-01-26T12:25:25.589Z,98159.05
2019-01-26T12:27:59.434Z,98153.00
2019-01-26T12:30:34.131Z,98145.75
2019-01-26T12:33:09.366Z,98139.64
2019-01-26T12:35:45.322Z,98138.84
2019-01-26T12:38:20.789Z,98139.58
2019-01-26T12:40:57.566Z,98129.88
2019-01-26T12:43:30.680Z,98119.31
2019-01-26T12:46:06.865Z,98112.00
2019-01-26T12:48:40.272Z,98116.20
2019-01-26T12:51:14.846Z,98111.84
2019-01-26T12:53:55.533Z,98108.04
2019-01-26T12:56:31.609Z,98113.78
2019-01-26T12:59:12.222Z,98102.44
2019-01-26T13:01:46.964Z,98114.27
2019-01-26T13:04:20.742Z,98103.69
2019-01-26T13:06:55.939Z,98099.09
2019-01-26T13:09:29.655Z,98105.94
2019-01-26T13:12:07.966Z,98102.24
2019-01-26T13:14:45.944Z,98111.92
2019-01-26T13:17:23.556Z,98107.95
2019-01-26T13:20:15.760Z,98102.57
2019-01-26T13:22:53.562Z,98106.39
2019-01-26T13:25:29.515Z,98107.95
2019-01-26T13:28:08.740Z,98109.81
2019-01-26T13:30:46.588Z,98105.34
2019-01-26T13:33:23.564Z,98111.66
2019-01-26T13:36:00.338Z,98105.00
2019-01-26T13:38:35.682Z,98102.08
2019-01-26T13:41:13.382Z,98106.48
2019-01-26T13:43:49.670Z,98104.03
2019-01-26T13:46:28.351Z,98105.54
2019-01-26T13:49:03.379Z,98110.17
2019-01-26T13:51:54.066Z,98108.34
2019-01-26T13:54:30.996Z,98111.05
2019-01-26T13:57:11.970Z,98108.48
2019-01-26T13:59:50.010Z,98105.59
2019-01-26T14:02:23.117Z,98106.82
2019-01-26T14:04:55.208Z,98110.25
2019-01-26T14:07:27.636Z,98115.42
2019-01-26T14:09:59.528Z,98115.06
2019-01-26T14:12:31.396Z,98118.81
2019-01-26T14:15:03.502Z,98125.16
2019-01-26T14:17:35.185Z,98130.70
2019-01-26T14:20:09.846Z,98127.16
2019-01-26T14:22:41.883Z,98129.77
2019-01-26T14:25:13.893Z,98134.13
2019-01-26T14:27:45.823Z,98141.09
2019-01-26T14:30:34.505Z,98139.75
2019-01-26T14:33:06.929Z,98130.38
2019-01-26T14:35:38.876Z,98136.67
2019-01-26T14:38:11.080Z,98136.68
2019-01-26T14:40:42.934Z,98140.16
2019-01-26T14:43:14.698Z,98144.15
2019-01-26T14:45:46.852Z,98146.77
2019-01-26T14:48:18.678Z,98146.94
2019-01-26T14:50:50.474Z,98142.42
2019-01-26T14:53:22.302Z,98146.66
2019-01-26T14:55:54.203Z,98146.33
2019-01-26T14:58:26.519Z,98150.81
2019-01-26T15:00:58.680Z,98148.33
2019-01-26T15:03:30.349Z,98151.38
2019-01-26T15:06:04.245Z,98147.64
2019-01-26T15:08:36.663Z,98148.66
2019-01-26T15:11:09.326Z,98147.64
2019-01-26T15:13:40.999Z,98152.23
2019-01-26T15:16:12.983Z,98148.45
2019-01-26T15:18:45.139Z,98149.96
2019-01-26T15:21:19.570Z,98156.41
2019-01-26T15:23:51.350Z,98154.13
2019-01-26T15:26:23.158Z,98150.27
2019-01-26T15:28:54.955Z,98155.36
2019-01-26T15:31:26.622Z,98151.39
2019-01-26T15:33:58.314Z,98145.55
2019-01-26T15:36:30.246Z,98153.01
2019-01-26T15:39:09.219Z,98147.80
2019-01-26T15:41:41.774Z,98148.45
2019-01-26T15:44:16.682Z,98149.16
2019-01-26T15:46:49.981Z,98152.97
2019-01-26T15:49:23.644Z,98151.33
2019-01-26T15:51:55.600Z,98148.03
2019-01-26T15:54:27.712Z,98152.28
2019-01-26T15:57:02.198Z,98153.53
2019-01-26T15:59:34.261Z,98154.80
2019-01-26T16:02:06.309Z,98153.66
2019-01-26T16:04:38.796Z,98153.62
2019-01-26T16:07:10.608Z,98162.48
2019-01-26T16:09:43.779Z,98160.95
2019-01-26T16:12:15.839Z,98171.95
2019-01-26T16:14:48.352Z,98167.91
2019-01-26T16:17:21.136Z,98161.46
2019-01-26T16:19:54.031Z,98165.36
2019-01-26T16:22:26.718Z,98163.57
2019-01-26T16:24:59.411Z,98164.60
2019-01-26T16:27:31.696Z,98167.70
2019-01-26T16:30:03.619Z,98167.55
2019-01-26T16:32:36.087Z,98172.98
2019-01-26T16:35:11.256Z,98172.33
2019-01-26T16:37:42.882Z,98166.42
2019-01-26T16:40:19.475Z,98172.41
2019-01-26T16:42:51.510Z,98182.16
2019-01-26T16:45:30.472Z,98181.22
2019-01-26T16:48:02.564Z,98185.13
2019-01-26T16:50:34.680Z,98175.64
2019-01-26T16:53:06.931Z,98173.78
2019-01-26T16:55:39.072Z,98179.83
2019-01-26T16:58:11.583Z,98178.73
2019-01-26T17:00:54.062Z,98180.41
2019-01-26T17:03:27.624Z,98176.67
2019-01-26T17:06:00.923Z,98176.86
2019-01-26T17:08:34.469Z,98170.01
2019-01-26T17:11:07.097Z,98164.91
2019-01-26T17:13:39.335Z,98167.67
2019-01-26T17:16:13.384Z,98166.64
2019-01-26T17:18:46.415Z,98155.41
2019-01-26T17:21:20.531Z,98162.34
2019-01-26T17:23:52.282Z,98163.53
2019-01-26T17:26:24.566Z,98152.53
2019-01-26T17:28:56.739Z,98151.84
2019-01-26T17:31:29.163Z,98147.08
2019-01-26T17:34:01.377Z,98142.28
2019-01-26T17:36:34.200Z,98143.07
2019-01-26T17:39:13.782Z,98152.92
2019-01-26T17:41:46.837Z,98148.97
2019-01-26T17:44:19.959Z,98161.41
2019-01-26T17:46:53.220Z,98159.02
2019-01-26T17:49:24.882Z,98153.33
2019-01-26T17:51:58.562Z,98155.33
2019-01-26T17:54:32.203Z,98149.48
2019-01-26T17:57:04.961Z,98138.89
2019-01-26T17:59:38.807Z,98135.15
2019-01-26T18:02:14.576Z,98130.98
2019-01-26T18:04:49.528Z,98125.39
2019-01-26T18:07:22.140Z,98124.78
2019-01-26T18:09:56.012Z,98124.13
2019-01-26T18:12:28.767Z,98133.41
2019-01-26T18:15:02.134Z,98144.95
2019-01-26T18:17:35.228Z,98161.42
2019-01-26T18:20:09.712Z,98168.93
2019-01-26T18:22:41.922Z,98168.33
2019-01-26T18:25:14.107Z,98172.66
2019-01-26T18:27:46.042Z,98177.60
2019-01-26T18:30:22.329Z,98175.10
2019-01-26T18:32:55.318Z,98170.93
2019-01-26T18:35:28.109Z,98175.78
2019-01-26T18:38:01.047Z,98163.81
2019-01-26T18:40:33.025Z,98167.23
2019-01-26T18:43:06.040Z,98164.03
2019-01-26T18:45:39.141Z,98167.21
2019-01-26T18:48:11.146Z,98163.71
2019-01-26T18:50:46.407Z,98165.28
2019-01-26T18:53:19.765Z,98173.31
2019-01-26T18:55:53.110Z,98179.03
2019-01-26T18:58:28.905Z,98176.96
2019-01-26T19:01:00.992Z,98181.06
2019-01-26T19:04:11.791Z,98182.80
2019-01-26T19:06:43.623Z,98180.83
2019-01-26T19:09:16.345Z,98180.52
2019-01-26T19:11:51.106Z,98193.97
2019-01-26T19:14:23.286Z,98196.84
2019-01-26T19:16:57.724Z,98192.05
2019-01-26T19:19:29.876Z,98189.31
2019-01-26T19:22:01.925Z,98190.49
2019-01-26T19:24:34.019Z,98197.45
2019-01-26T19:27:07.411Z,98199.63
2019-01-26T19:29:40.171Z,98203.50
2019-01-26T19:32:12.501Z,98199.19
2019-01-26T19:34:44.716Z,98191.42
2019-01-26T19:37:17.241Z,98192.75
2019-01-26T19:39:52.659Z,98184.38
2019-01-26T19:42:28.021Z,98175.80
2019-01-26T19:45:02.819Z,98184.42
2019-01-26T19:47:34.953Z,98187.80
2019-01-26T19:50:08.701Z,98193.85
2019-01-26T19:52:41.332Z,98198.45
2019-01-26T19:55:14.349Z,98203.99
2019-01-26T19:57:46.803Z,98200.33
2019-01-26T20:00:19.453Z,98194.48
2019-01-26T20:02:55.107Z,98189.64
2019-01-26T20:05:29.438Z,98178.80
2019-01-26T20:08:02.036Z,98184.71
2019-01-26T20:10:36.050Z,98188.31
2019-01-26T20:13:09.087Z,98186.44
2019-01-26T20:15:42.916Z,98196.98
2019-01-26T20:18:15.856Z,98193.50
2019-01-26T20:20:48.372Z,98193.50
2019-01-26T20:23:21.793Z,98201.54
2019-01-26T20:25:54.846Z,98197.34
2019-01-26T20:28:28.307Z,98192.89
2019-01-26T20:31:01.161Z,98179.43
2019-01-26T20:33:41.788Z,98177.22
2019-01-26T20:36:14.885Z,98185.64
2019-01-26T20:38:49.458Z,98194.89
2019-01-26T20:41:23.033Z,98194.56
2019-01-26T20:43:57.429Z,98199.47
2019-01-26T20:46:32.849Z,98196.22
2019-01-26T20:49:05.912Z,98210.81
2019-01-26T20:51:41.343Z,98205.17
2019-01-26T20:54:15.394Z,98204.83
2019-01-26T20:56:48.453Z,98200.70
2019-01-26T20:59:22.414Z,98199.92
2019-01-26T21:01:56.890Z,98201.27
2019-01-26T21:04:31.932Z,98195.73
2019-01-26T21:07:04.973Z,98189.72
2019-01-26T21:09:38.062Z,98188.88
2019-01-26T21:12:12.302Z,98189.45
2019-01-26T21:14:44.979Z,98194.58
2019-01-26T21:17:19.907Z,98198.49
2019-01-26T21:19:52.988Z,98196.97
2019-01-26T21:22:26.513Z,98199.76
2019-01-26T21:25:01.329Z,98208.11
2019-01-26T21:27:33.828Z,98200.80
2019-01-26T21:30:10.908Z,98195.08
2019-01-26T21:32:43.381Z,98187.33
2019-01-26T21:35:16.411Z,98183.92
2019-01-26T21:37:50.555Z,98178.36
2019-01-26T21:40:27.207Z,98175.01
2019-01-26T21:43:00.106Z,98176.90
2019-01-26T21:45:32.541Z,98182.06
2019-01-26T21:48:07.212Z,98176.78
2019-01-26T21:50:40.122Z,98179.28
2019-01-26T21:53:12.116Z,98177.44
2019-01-26T21:55:48.043Z,98180.96
2019-01-26T21:58:20.320Z,98179.09
2019-01-26T22:00:57.647Z,98181.56
2019-01-26T22:03:29.583Z,98181.44
2019-01-26T22:06:03.581Z,98184.12
2019-01-26T22:08:35.590Z,98188.13
2019-01-26T22:11:07.825Z,98182.47
2019-01-26T22:13:39.783Z,98189.63
2019-01-26T22:16:11.397Z,98196.16
2019-01-26T22:18:43.261Z,98201.45
2019-01-26T22:21:15.806Z,98198.09
2019-01-26T22:23:47.594Z,98197.52
2019-01-26T22:26:20.087Z,98202.45
2019-01-26T22:28:52.569Z,98200.62
2019-01-26T22:31:24.385Z,98199.06
2019-01-26T22:33:57.629Z,98201.45
2019-01-26T22:36:29.522Z,98198.31
2019-01-26T22:39:02.440Z,98206.59
2019-01-26T22:41:34.992Z,98200.44
2019-01-26T22:44:07.402Z,98196.58
2019-01-26T22:46:39.419Z,98195.69
2019-01-26T22:49:11.342Z,98193.91
2019-01-26T22:51:43.245Z,98194.58
2019-01-26T22:54:15.904Z,98191.35
2019-01-26T22:56:47.555Z,98186.52
2019-01-26T22:59:19.844Z,98194.75
2019-01-26T23:01:54.182Z,98196.81
2019-01-26T23:04:58.818Z,98202.08
2019-01-26T23:07:55.079Z,98189.33
2019-01-26T23:11:05.945Z,98181.65
2019-01-26T23:14:49.216Z,98171.69
2019-01-26T23:17:44.321Z,98158.38
2019-01-26T23:20:39.316Z,98167.64
2019-01-26T23:24:09.688Z,98156.75
2019-01-26T23:27:30.446Z,98150.70
2019-01-26T23:30:49.531Z,98153.38
2019-01-26T23:33:21.760Z,98142.48
2019-01-26T23:35:53.811Z,98141.70
2019-01-26T23:38:25.950Z,98147.81
2019-01-26T23:40:58.133Z,98158.90
2019-01-26T23:43:30.631Z,98155.58
2019-01-26T23:46:03.114Z,98159.97
2019-01-26T23:48:35.772Z,98156.56
2019-01-26T23:51:08.790Z,98157.95
2019-01-26T23:53:40.747Z,98149.92
2019-01-26T23:56:12.769Z,98147.42
2019-01-26T23:58:44.763Z,98144.86
